Time;durP1;ratioP1;P1;durP2;ratioP2;P2;SDS_P1;SDS_P2;PMS_P1;PMS_P2;Temp;Humidity;BMP_temperature;BMP_pressure;BME280_temperature;BME280_humidity;BME280_pressure;Samples;Min_cycle;Max_cycle;Signal;HPM_P1;HPM_P2
2022/10/25 00:01:01;;;;;;;11.35;3.60;;;14.70;99.90;;;;;;4996640;28;20018;-86
2022/10/25 00:03:27;;;;;;;10.60;3.40;;;14.70;99.90;;;;;;5003754;28;20026;-87
2022/10/25 00:05:52;;;;;;;12.63;4.28;;;14.70;99.90;;;;;;5003639;28;20029;-88
2022/10/25 00:08:18;;;;;;;11.13;4.13;;;14.70;99.90;;;;;;5022703;28;20430;-87
2022/10/25 00:10:44;;;;;;;15.52;4.50;;;14.70;99.90;;;;;;5006362;28;20034;-88
2022/10/25 00:13:09;;;;;;;12.48;3.83;;;14.70;99.90;;;;;;5007692;28;20084;-88
2022/10/25 00:15:35;;;;;;;9.65;4.07;;;14.70;99.90;;;;;;5021107;28;20498;-88
2022/10/25 00:18:01;;;;;;;12.90;4.38;;;14.70;99.90;;;;;;4988319;28;20061;-88
2022/10/25 00:20:27;;;;;;;11.38;3.92;;;14.70;99.90;;;;;;5011822;28;20021;-87
2022/10/25 00:22:53;;;;;;;9.82;3.88;;;14.70;99.90;;;;;;5014656;28;20120;-89
2022/10/25 00:25:21;;;;;;;13.35;3.80;;;14.70;99.90;;;;;;5000568;28;20397;-89
2022/10/25 00:27:52;;;;;;;11.07;3.80;;;14.70;99.90;;;;;;5000895;28;20042;-86
2022/10/25 00:30:23;;;;;;;10.13;4.00;;;14.70;99.90;;;;;;4998384;28;20386;-86
2022/10/25 00:32:51;;;;;;;;;;;14.70;99.90;;;;;;4977432;28;20034;-84
2022/10/25 00:35:23;;;;;;;11.65;4.22;;;14.70;99.90;;;;;;5013729;28;19916;-84
2022/10/25 00:37:52;;;;;;;8.88;3.75;;;14.70;99.90;;;;;;4992972;28;20041;-85
2022/10/25 00:40:24;;;;;;;10.68;4.65;;;14.70;99.90;;;;;;5000053;28;20026;-84
2022/10/25 00:42:52;;;;;;;8.40;3.95;;;14.70;99.90;;;;;;5016615;28;20025;-85
2022/10/25 00:45:28;;;;;;;11.40;4.70;;;14.70;99.90;;;;;;5000090;28;20364;-84
2022/10/25 00:48:03;;;;;;;11.05;4.43;;;14.70;99.90;;;;;;5032368;28;20067;-86
2022/10/25 00:50:34;;;;;;;12.45;4.20;;;14.70;99.90;;;;;;5033173;28;20053;-86
2022/10/25 00:53:07;;;;;;;10.85;4.47;;;14.70;99.90;;;;;;5035570;28;20478;-87
2022/10/25 00:55:33;;;;;;;13.85;4.45;;;14.70;99.90;;;;;;5020583;28;20013;-87
2022/10/25 00:58:17;;;;;;;11.00;5.40;;;14.70;99.90;;;;;;5004323;28;20034;-87
2022/10/25 01:00:46;;;;;;;13.57;4.82;;;14.70;99.90;;;;;;5004704;28;20026;-87
2022/10/25 01:03:16;;;;;;;8.02;4.80;;;14.70;99.90;;;;;;5029113;28;20026;-87
2022/10/25 01:05:48;;;;;;;7.78;3.85;;;14.80;99.90;;;;;;5016000;28;20029;-87
2022/10/25 01:08:19;;;;;;;10.82;4.10;;;14.80;99.90;;;;;;5017365;28;20022;-87
2022/10/25 01:10:48;;;;;;;11.40;5.63;;;14.80;99.90;;;;;;5031843;28;20033;-87
2022/10/25 01:13:22;;;;;;;10.10;4.50;;;14.80;99.90;;;;;;5008162;28;20029;-87
2022/10/25 01:16:16;;;;;;;10.35;5.28;;;14.80;99.90;;;;;;5001065;28;20049;-88
2022/10/25 01:19:14;;;;;;;10.40;4.53;;;14.80;99.90;;;;;;5026962;28;20034;-88
2022/10/25 01:21:50;;;;;;;14.63;4.82;;;14.90;99.90;;;;;;5022735;28;20045;-87
2022/10/25 01:24:20;;;;;;;12.30;5.60;;;14.90;99.90;;;;;;5037172;28;20378;-88
2022/10/25 01:27:12;;;;;;;12.95;5.00;;;14.90;99.90;;;;;;5023375;28;20112;-87
2022/10/25 01:30:06;;;;;;;12.05;5.30;;;14.90;99.90;;;;;;5036622;28;20029;-87
2022/10/25 01:33:23;;;;;;;14.02;5.00;;;14.90;99.90;;;;;;5036755;28;20114;-87
2022/10/25 01:35:52;;;;;;;14.05;4.30;;;14.90;99.90;;;;;;4960535;28;20499;-87
2022/10/25 01:38:50;;;;;;;11.93;4.63;;;15.00;99.90;;;;;;4960781;28;20015;-88
2022/10/25 01:41:34;;;;;;;16.30;4.47;;;14.90;99.90;;;;;;4930536;28;20087;-88
2022/10/25 01:44:33;;;;;;;11.27;4.00;;;15.00;99.90;;;;;;4976669;28;20023;-88
2022/10/25 01:47:05;;;;;;;10.23;4.00;;;15.00;99.90;;;;;;4998593;28;20033;-87
2022/10/25 01:49:38;;;;;;;11.95;4.40;;;15.00;99.90;;;;;;5027869;28;20089;-87
2022/10/25 01:52:04;;;;;;;14.75;3.85;;;15.00;99.90;;;;;;5024796;28;20108;-87
2022/10/25 01:54:30;;;;;;;11.05;3.72;;;15.00;99.90;;;;;;5023068;28;20048;-87
2022/10/25 01:57:39;;;;;;;12.23;4.55;;;15.00;99.90;;;;;;5022962;28;20017;-87
2022/10/25 02:00:11;;;;;;;14.57;4.00;;;15.00;99.90;;;;;;5038822;28;20074;-87
2022/10/25 02:03:13;;;;;;;13.02;3.70;;;15.00;99.90;;;;;;5022344;28;20017;-87
2022/10/25 02:06:07;;;;;;;13.98;4.10;;;15.00;99.90;;;;;;5035936;28;20025;-87
2022/10/25 02:08:34;;;;;;;13.43;4.03;;;15.00;99.90;;;;;;5030282;28;20398;-87
2022/10/25 02:11:24;;;;;;;15.25;3.95;;;15.00;99.90;;;;;;5040352;28;20029;-87
2022/10/25 02:14:30;;;;;;;10.57;3.80;;;15.00;99.90;;;;;;5031515;28;20415;-87
2022/10/25 02:17:23;;;;;;;12.70;4.47;;;15.00;99.90;;;;;;5039152;28;20044;-87
2022/10/25 02:19:56;;;;;;;12.68;4.13;;;15.00;99.90;;;;;;5034991;28;20347;-87
2022/10/25 02:22:28;;;;;;;11.60;3.88;;;15.00;99.90;;;;;;5035189;28;20021;-87
2022/10/25 02:24:56;;;;;;;11.75;3.80;;;15.00;99.90;;;;;;5056157;28;20412;-87
2022/10/25 02:27:24;;;;;;;15.32;4.40;;;15.00;99.90;;;;;;5011072;28;20033;-87
2022/10/25 02:29:52;;;;;;;14.50;4.70;;;15.00;99.90;;;;;;5006772;28;20017;-87
2022/10/25 02:32:18;;;;;;;12.20;4.82;;;15.00;99.90;;;;;;5038359;28;20053;-87
2022/10/25 02:34:48;;;;;;;15.63;4.70;;;14.90;99.90;;;;;;5038556;28;20029;-87
2022/10/25 02:37:14;;;;;;;17.33;5.05;;;15.00;99.90;;;;;;5017597;28;20125;-87
2022/10/25 02:39:39;;;;;;;16.30;5.05;;;14.90;99.90;;;;;;5018552;28;20114;-85
2022/10/25 02:42:06;;;;;;;13.43;4.72;;;15.00;99.90;;;;;;5005370;28;20471;-85
2022/10/25 02:44:32;;;;;;;15.85;5.28;;;14.90;99.90;;;;;;5026767;28;20051;-85
2022/10/25 02:46:58;;;;;;;15.80;5.20;;;15.00;99.90;;;;;;5020700;28;20029;-84
2022/10/25 02:49:25;;;;;;;15.23;5.50;;;15.00;99.90;;;;;;5002722;28;20029;-85
2022/10/25 02:51:51;;;;;;;14.77;5.90;;;15.00;99.90;;;;;;5021858;28;20031;-85
2022/10/25 02:54:17;;;;;;;16.05;5.40;;;15.00;99.90;;;;;;4996247;28;20120;-85
2022/10/25 02:56:43;;;;;;;15.20;5.72;;;15.00;99.90;;;;;;5019934;28;20112;-88
2022/10/25 02:59:11;;;;;;;15.15;6.45;;;15.00;99.90;;;;;;4998318;28;20035;-88
2022/10/25 03:01:37;;;;;;;14.90;6.13;;;15.00;99.90;;;;;;5032597;28;20104;-87
2022/10/25 03:04:03;;;;;;;18.17;6.07;;;15.00;99.90;;;;;;5018761;28;20017;-88
2022/10/25 03:06:30;;;;;;;14.40;6.10;;;15.00;99.90;;;;;;5001952;28;20076;-88
2022/10/25 03:08:55;;;;;;;16.45;5.63;;;15.00;99.90;;;;;;5035865;28;20013;-88
2022/10/25 03:11:21;;;;;;;13.02;5.10;;;15.00;99.90;;;;;;5021428;28;20037;-87
2022/10/25 03:13:47;;;;;;;14.82;5.80;;;15.00;99.90;;;;;;5020100;28;20029;-88
2022/10/25 03:16:14;;;;;;;17.35;6.53;;;15.00;99.90;;;;;;4999830;28;20068;-88
2022/10/25 03:18:40;;;;;;;14.45;6.00;;;15.00;99.90;;;;;;5034559;28;20466;-88
2022/10/25 03:21:07;;;;;;;18.48;6.93;;;15.00;99.90;;;;;;5001803;28;20123;-88
2022/10/25 03:23:33;;;;;;;16.80;5.80;;;15.00;99.90;;;;;;5004718;28;20033;-88
2022/10/25 03:26:00;;;;;;;17.25;5.90;;;15.00;99.90;;;;;;5007393;28;20041;-87
2022/10/25 03:28:27;;;;;;;15.55;5.95;;;15.10;99.90;;;;;;5021667;28;20025;-87
2022/10/25 03:30:54;;;;;;;10.95;5.60;;;15.10;99.90;;;;;;5037394;28;20059;-87
2022/10/25 03:33:20;;;;;;;14.95;5.60;;;15.10;99.90;;;;;;5020119;28;20029;-89
2022/10/25 03:35:51;;;;;;;12.68;5.80;;;15.10;99.90;;;;;;5034033;28;20032;-87
2022/10/25 03:38:35;;;;;;;18.67;6.22;;;15.10;99.90;;;;;;5022901;28;20021;-86
2022/10/25 03:41:01;;;;;;;12.50;5.45;;;15.10;99.90;;;;;;5037016;28;20021;-87
2022/10/25 03:43:27;;;;;;;18.15;6.35;;;15.10;99.90;;;;;;5015072;28;20113;-87
2022/10/25 03:45:53;;;;;;;14.40;4.80;;;15.10;99.90;;;;;;5028081;28;20029;-86
2022/10/25 03:48:19;;;;;;;14.30;5.35;;;15.10;99.90;;;;;;5033078;28;20049;-86
2022/10/25 03:50:46;;;;;;;13.05;5.32;;;15.10;99.90;;;;;;4985742;28;20029;-86
2022/10/25 03:53:12;;;;;;;15.50;5.82;;;15.10;99.90;;;;;;5031910;28;20115;-86
2022/10/25 03:55:38;;;;;;;15.90;5.72;;;15.10;99.90;;;;;;5036711;28;20171;-86
2022/10/25 03:58:04;;;;;;;14.68;5.32;;;15.10;99.90;;;;;;5024006;28;20079;-87
2022/10/25 04:00:32;;;;;;;17.23;5.82;;;15.10;99.90;;;;;;5022454;28;20021;-86
2022/10/25 04:03:01;;;;;;;17.45;6.05;;;15.10;99.90;;;;;;5007900;28;20029;-86
2022/10/25 04:05:27;;;;;;;14.15;5.40;;;15.10;99.90;;;;;;5016800;28;20040;-86
2022/10/25 04:07:54;;;;;;;11.30;5.10;;;15.10;99.90;;;;;;5041410;28;20462;-86
2022/10/25 04:10:20;;;;;;;20.05;6.15;;;15.10;99.90;;;;;;5007470;28;20029;-86
2022/10/25 04:12:46;;;;;;;18.27;5.85;;;15.10;99.90;;;;;;5019991;28;20029;-86
2022/10/25 04:15:12;;;;;;;14.80;5.10;;;15.10;99.90;;;;;;5035983;28;20414;-86
2022/10/25 04:17:39;;;;;;;17.88;5.72;;;15.10;99.90;;;;;;5037118;28;20021;-87
2022/10/25 04:20:06;;;;;;;13.38;4.78;;;15.10;99.90;;;;;;5035654;28;20021;-87
2022/10/25 04:22:33;;;;;;;11.57;4.82;;;15.10;99.90;;;;;;5006549;28;20026;-87
2022/10/25 04:24:59;;;;;;;14.00;5.03;;;15.10;99.90;;;;;;5022665;28;20155;-87
2022/10/25 04:30:06;;;;;;;13.75;5.15;;;15.10;99.90;;;;;;5055146;22;20062;-79
2022/10/25 04:32:31;;;;;;;15.65;4.72;;;15.10;99.90;;;;;;5033291;28;20041;-79
2022/10/25 04:34:57;;;;;;;15.52;5.18;;;15.10;99.90;;;;;;5017592;28;20040;-79
2022/10/25 04:37:22;;;;;;;14.68;4.57;;;15.10;99.90;;;;;;5032272;28;20029;-83
2022/10/25 04:39:48;;;;;;;12.95;4.80;;;15.10;99.90;;;;;;4999913;28;20064;-79
2022/10/25 04:42:14;;;;;;;13.18;5.10;;;15.10;99.90;;;;;;5025241;28;20030;-79
2022/10/25 04:44:39;;;;;;;13.48;5.03;;;15.10;99.90;;;;;;5011352;28;20084;-79
2022/10/25 04:47:05;;;;;;;16.15;5.03;;;15.10;99.90;;;;;;5023294;28;20034;-83
2022/10/25 04:49:31;;;;;;;12.25;5.20;;;15.10;99.90;;;;;;4985849;28;20411;-83
2022/10/25 04:51:57;;;;;;;16.13;5.28;;;15.10;99.90;;;;;;5014810;28;20037;-83
2022/10/25 04:54:25;;;;;;;11.48;5.57;;;15.10;99.90;;;;;;5033388;28;20045;-83
2022/10/25 04:56:51;;;;;;;12.85;5.05;;;15.00;99.90;;;;;;4996705;28;20068;-83
2022/10/25 04:59:16;;;;;;;10.40;5.28;;;15.00;99.90;;;;;;5012911;28;20018;-83
2022/10/25 05:01:42;;;;;;;12.07;4.85;;;15.00;99.90;;;;;;5026503;28;20383;-83
2022/10/25 05:04:08;;;;;;;15.68;5.80;;;15.00;99.90;;;;;;5006440;28;20379;-83
2022/10/25 05:06:33;;;;;;;12.35;5.40;;;15.00;99.90;;;;;;5003113;28;20506;-83
2022/10/25 05:08:59;;;;;;;11.80;5.00;;;15.00;99.90;;;;;;5016008;28;20026;-83
2022/10/25 05:12:02;;;;;;;14.60;6.20;;;15.00;99.90;;;;;;5033349;28;20433;-83
2022/10/25 05:14:45;;;;;;;9.43;5.00;;;15.00;99.90;;;;;;5036569;28;20026;-82
2022/10/25 05:17:10;;;;;;;10.07;4.82;;;15.00;99.90;;;;;;5032493;28;20017;-82
2022/10/25 05:19:36;;;;;;;13.70;5.30;;;15.00;99.90;;;;;;5015668;28;20048;-81
2022/10/25 05:22:02;;;;;;;12.63;5.13;;;15.00;99.90;;;;;;5031754;28;20026;-83
2022/10/25 05:24:27;;;;;;;17.67;5.43;;;15.00;99.90;;;;;;5030136;28;20438;-83
2022/10/25 05:26:53;;;;;;;13.20;4.55;;;15.00;99.90;;;;;;5032068;28;20029;-83
2022/10/25 05:29:19;;;;;;;12.93;4.70;;;15.00;99.90;;;;;;5020247;28;20038;-84
2022/10/25 05:31:44;;;;;;;14.00;4.50;;;14.90;99.90;;;;;;4997129;28;20030;-84
2022/10/25 05:34:10;;;;;;;9.80;3.75;;;14.90;99.90;;;;;;5012745;28;20120;-83
2022/10/25 05:36:36;;;;;;;11.45;3.95;;;14.90;99.90;;;;;;5030074;28;20026;-84
2022/10/25 05:39:02;;;;;;;9.20;3.67;;;14.90;99.90;;;;;;5009792;28;20032;-84
2022/10/25 05:41:27;;;;;;;6.05;3.35;;;14.90;99.90;;;;;;5019397;28;20080;-84
2022/10/25 05:43:53;;;;;;;10.90;4.15;;;14.90;99.90;;;;;;5010867;28;20457;-83
2022/10/25 05:46:20;;;;;;;12.73;3.70;;;14.90;99.90;;;;;;5035304;28;20033;-83
2022/10/25 05:48:47;;;;;;;8.70;3.67;;;14.90;99.90;;;;;;5025358;28;20032;-83
2022/10/25 05:51:19;;;;;;;11.25;4.53;;;14.90;99.90;;;;;;5032620;28;20025;-82
2022/10/25 05:53:49;;;;;;;9.93;3.70;;;14.90;99.90;;;;;;5035270;28;20394;-83
2022/10/25 05:56:16;;;;;;;10.32;3.97;;;14.80;99.90;;;;;;5017813;28;20429;-85
2022/10/25 06:02:04;;;;;;;10.10;3.58;;;14.80;99.90;;;;;;5031348;28;20028;-84
2022/10/25 06:04:30;;;;;;;12.45;4.40;;;14.80;99.90;;;;;;5021267;28;20021;-84
2022/10/25 06:06:56;;;;;;;13.07;4.25;;;14.80;99.90;;;;;;5035516;28;20029;-80
2022/10/25 06:09:22;;;;;;;14.27;4.30;;;14.80;99.90;;;;;;5034224;28;20124;-84
2022/10/25 06:11:48;;;;;;;14.43;4.75;;;14.80;99.90;;;;;;5035164;28;20057;-84
2022/10/25 06:14:13;;;;;;;11.40;4.00;;;14.80;99.90;;;;;;4999072;28;20045;-84
2022/10/25 06:16:39;;;;;;;10.18;4.15;;;14.80;99.90;;;;;;5008716;28;20457;-84
2022/10/25 06:19:05;;;;;;;11.73;4.55;;;14.80;99.90;;;;;;5028476;28;20058;-84
2022/10/25 06:21:31;;;;;;;13.73;5.03;;;14.80;99.90;;;;;;5034148;28;20050;-84
2022/10/25 06:23:58;;;;;;;14.27;4.63;;;14.70;99.90;;;;;;4994374;28;20056;-84
2022/10/25 06:26:27;;;;;;;9.27;4.53;;;14.70;99.90;;;;;;5026691;28;20018;-84
2022/10/25 06:28:55;;;;;;;8.00;4.25;;;14.70;99.90;;;;;;5041823;28;20048;-83
2022/10/25 06:31:21;;;;;;;11.15;4.80;;;14.70;99.90;;;;;;5033542;28;20063;-84
2022/10/25 06:33:47;;;;;;;9.98;4.10;;;14.70;99.90;;;;;;5020406;28;20041;-83
2022/10/25 06:36:15;;;;;;;10.35;4.72;;;14.70;99.90;;;;;;5037350;28;20071;-83
2022/10/25 06:38:42;;;;;;;9.48;4.70;;;14.70;99.90;;;;;;5052316;28;20048;-84
2022/10/25 06:41:14;;;;;;;12.30;4.30;;;14.70;99.90;;;;;;5049962;28;20053;-83
2022/10/25 06:43:40;;;;;;;11.68;4.70;;;14.70;99.90;;;;;;5035977;28;20088;-84
2022/10/25 06:46:07;;;;;;;11.18;4.78;;;14.70;99.90;;;;;;5037209;28;20036;-84
2022/10/25 06:48:33;;;;;;;11.90;4.57;;;14.70;99.90;;;;;;5037077;28;20028;-84
2022/10/25 06:51:04;;;;;;;12.00;4.47;;;14.70;99.90;;;;;;5042171;28;20400;-84
2022/10/25 06:53:30;;;;;;;;;;;14.70;99.90;;;;;;5037863;28;20052;-82
2022/10/25 06:56:00;;;;;;;8.13;4.13;;;14.70;99.90;;;;;;5055128;28;20013;-82
2022/10/25 06:58:25;;;;;;;11.25;4.50;;;14.70;99.90;;;;;;5029773;28;20067;-83
2022/10/25 07:00:51;;;;;;;9.73;4.53;;;14.60;99.90;;;;;;5010042;28;20025;-83
2022/10/25 07:03:17;;;;;;;9.57;4.47;;;14.60;99.90;;;;;;5037732;28;20029;-82
2022/10/25 07:05:42;;;;;;;12.13;5.03;;;14.60;99.90;;;;;;5034104;28;20025;-83
2022/10/25 07:08:08;;;;;;;11.95;4.95;;;14.60;99.90;;;;;;5020526;28;20028;-83
2022/10/25 07:10:34;;;;;;;13.20;5.00;;;14.60;99.90;;;;;;5020884;28;20028;-80
2022/10/25 07:12:59;;;;;;;12.50;4.90;;;14.70;99.90;;;;;;5037492;28;20032;-80
2022/10/25 07:15:26;;;;;;;13.77;5.35;;;14.70;99.90;;;;;;5016765;28;20136;-80
2022/10/25 07:17:54;;;;;;;11.18;4.82;;;14.70;99.90;;;;;;5030645;28;20028;-83
2022/10/25 07:20:19;;;;;;;9.27;4.75;;;14.70;99.90;;;;;;5037106;28;20063;-83
2022/10/25 07:22:45;;;;;;;13.02;4.68;;;14.70;99.90;;;;;;5054992;28;20397;-83
2022/10/25 07:25:11;;;;;;;10.32;5.03;;;14.70;99.90;;;;;;5010689;28;20025;-83
2022/10/25 07:27:36;;;;;;;14.63;5.90;;;14.70;99.90;;;;;;5033291;28;20026;-85
2022/10/25 07:30:03;;;;;;;11.55;5.53;;;14.70;99.90;;;;;;5018637;28;20053;-83
2022/10/25 07:32:28;;;;;;;14.55;5.85;;;14.60;99.90;;;;;;5019146;28;20247;-84
2022/10/25 07:35:06;;;;;;;12.48;5.00;;;14.70;99.90;;;;;;5014730;28;20087;-83
2022/10/25 07:37:32;;;;;;;10.70;5.43;;;14.70;99.90;;;;;;5012790;28;20025;-83
2022/10/25 07:39:58;;;;;;;13.45;6.25;;;14.60;99.90;;;;;;5012061;28;20025;-80
2022/10/25 07:42:24;;;;;;;15.65;6.18;;;14.70;99.90;;;;;;5062148;28;20114;-80
2022/10/25 07:44:49;;;;;;;10.88;5.93;;;14.70;99.90;;;;;;5038469;28;20033;-80
2022/10/25 07:47:53;;;;;;;12.93;5.78;;;14.70;99.90;;;;;;5034852;28;20582;-80
2022/10/25 07:50:18;;;;;;;10.80;5.47;;;14.70;99.90;;;;;;5040147;28;20090;-81
2022/10/25 07:52:45;;;;;;;12.85;6.45;;;14.70;99.90;;;;;;5020694;28;20120;-80
2022/10/25 07:55:11;;;;;;;10.00;5.90;;;14.70;99.90;;;;;;5040242;28;20047;-80
2022/10/25 07:57:37;;;;;;;12.00;5.88;;;14.70;99.90;;;;;;5022582;28;20044;-80
2022/10/25 08:00:04;;;;;;;13.82;7.22;;;14.80;99.90;;;;;;5036614;28;20378;-80
2022/10/25 08:02:29;;;;;;;15.90;6.18;;;14.80;99.90;;;;;;5053904;28;20023;-79
2022/10/25 08:04:55;;;;;;;11.30;6.15;;;14.80;99.90;;;;;;5017878;28;20033;-80
2022/10/25 08:07:21;;;;;;;9.68;5.82;;;14.80;99.90;;;;;;5025211;28;20049;-79
2022/10/25 08:09:46;;;;;;;15.88;6.72;;;14.80;99.90;;;;;;5019124;28;20039;-80
2022/10/25 08:12:12;;;;;;;11.90;6.28;;;14.90;99.90;;;;;;5061730;28;20039;-81
2022/10/25 08:14:38;;;;;;;11.20;6.15;;;14.90;99.90;;;;;;5051438;28;20117;-80
2022/10/25 08:17:03;;;;;;;13.70;7.43;;;14.80;99.90;;;;;;5010582;28;20021;-81
2022/10/25 08:19:29;;;;;;;13.50;7.13;;;14.90;99.90;;;;;;5002110;28;20025;-80
2022/10/25 08:21:54;;;;;;;15.20;6.82;;;14.90;99.90;;;;;;4996413;28;20025;-80
2022/10/25 08:24:20;;;;;;;12.45;7.65;;;14.90;99.90;;;;;;5029942;28;20025;-80
2022/10/25 08:26:46;;;;;;;11.93;7.25;;;14.90;99.90;;;;;;5030534;28;20025;-80
2022/10/25 08:29:11;;;;;;;20.58;8.50;;;14.90;99.90;;;;;;5029436;28;20029;-80
2022/10/25 08:31:37;;;;;;;13.15;7.43;;;14.90;99.90;;;;;;5003257;28;20077;-80
2022/10/25 08:34:02;;;;;;;16.58;8.20;;;14.90;99.90;;;;;;5019030;28;20085;-80
2022/10/25 08:36:28;;;;;;;16.77;8.75;;;14.90;99.90;;;;;;5008879;28;20033;-80
2022/10/25 08:38:54;;;;;;;19.35;8.38;;;14.90;99.90;;;;;;5020556;28;20096;-80
2022/10/25 08:41:40;;;;;;;16.63;8.88;;;15.00;99.90;;;;;;5023581;28;20471;-80
2022/10/25 08:44:12;;;;;;;15.88;9.43;;;15.00;99.90;;;;;;5021460;28;20494;-79
2022/10/25 08:46:53;;;;;;;17.00;9.38;;;15.00;99.90;;;;;;5033322;28;20076;-80
2022/10/25 08:49:27;;;;;;;17.67;10.45;;;15.00;99.90;;;;;;5020353;28;20115;-82
2022/10/25 08:51:55;;;;;;;14.45;10.68;;;15.00;99.90;;;;;;5014222;28;20080;-82
2022/10/25 08:54:26;;;;;;;15.95;10.48;;;15.00;99.90;;;;;;5032575;28;20034;-81
2022/10/25 08:57:04;;;;;;;20.65;11.25;;;15.00;99.90;;;;;;5028865;28;20477;-82
2022/10/25 08:59:35;;;;;;;16.95;11.45;;;15.10;99.90;;;;;;5031707;28;20449;-83
2022/10/25 09:02:01;;;;;;;;;;;15.10;99.90;;;;;;5027534;28;20017;-82
2022/10/25 09:04:29;;;;;;;18.33;11.27;;;15.10;99.90;;;;;;5030154;28;19936;-83
2022/10/25 09:07:10;;;;;;;19.65;11.68;;;15.10;99.90;;;;;;5031452;28;20022;-82
2022/10/25 09:10:07;;;;;;;14.13;11.50;;;15.10;99.90;;;;;;5031906;28;20025;-82
2022/10/25 09:12:43;;;;;;;16.77;10.93;;;15.10;99.90;;;;;;5034472;28;20025;-82
2022/10/25 09:15:50;;;;;;;16.45;11.50;;;15.10;99.90;;;;;;5033633;28;20072;-82
2022/10/25 09:18:18;;;;;;;16.77;11.35;;;15.20;99.90;;;;;;4983731;28;20040;-80
2022/10/25 09:20:51;;;;;;;15.27;10.93;;;15.20;99.90;;;;;;5030008;28;20488;-80
2022/10/25 09:23:28;;;;;;;18.67;11.57;;;15.20;99.90;;;;;;5035634;28;20026;-80
2022/10/25 09:26:06;;;;;;;19.70;11.68;;;15.30;99.90;;;;;;5021068;28;20022;-83
2022/10/25 09:29:01;;;;;;;16.98;11.98;;;15.40;99.90;;;;;;5035730;28;20426;-83
2022/10/25 09:31:32;;;;;;;16.13;11.13;;;15.40;99.90;;;;;;5039029;28;20115;-84
2022/10/25 09:34:04;;;;;;;18.55;11.40;;;15.40;99.90;;;;;;5024865;28;20032;-84
2022/10/25 09:36:49;;;;;;;16.92;10.77;;;15.50;99.90;;;;;;5038710;28;20036;-83
2022/10/25 09:39:46;;;;;;;18.85;10.82;;;15.50;99.90;;;;;;5025170;28;20417;-83
2022/10/25 09:42:30;;;;;;;18.63;10.98;;;15.60;99.90;;;;;;5017902;28;20033;-80
2022/10/25 09:45:00;;;;;;;17.80;10.80;;;15.60;99.90;;;;;;5057168;28;20051;-80
2022/10/25 09:47:44;;;;;;;14.18;10.05;;;15.70;99.90;;;;;;5056207;28;20024;-80
2022/10/25 09:50:13;;;;;;;17.27;10.85;;;15.70;99.90;;;;;;5038958;28;20890;-80
2022/10/25 09:52:41;;;;;;;14.80;9.98;;;15.70;99.90;;;;;;5034787;28;20052;-80
2022/10/25 09:55:10;;;;;;;14.95;8.68;;;15.70;99.90;;;;;;5038224;28;20024;-82
2022/10/25 09:57:36;;;;;;;17.10;9.35;;;15.80;99.90;;;;;;5038182;28;20051;-82
2022/10/25 10:00:02;;;;;;;15.43;9.68;;;15.80;99.90;;;;;;5056273;28;20048;-82
2022/10/25 10:02:28;;;;;;;17.13;9.10;;;15.90;99.90;;;;;;5038329;28;20021;-82
2022/10/25 10:04:53;;;;;;;18.35;9.80;;;15.90;99.90;;;;;;5038256;28;20035;-82
2022/10/25 10:07:33;;;;;;;17.30;9.75;;;15.90;99.90;;;;;;5038334;28;20359;-80
2022/10/25 10:10:02;;;;;;;14.45;9.93;;;16.00;99.90;;;;;;5022082;28;20405;-80
2022/10/25 10:12:40;;;;;;;15.20;10.23;;;16.00;99.90;;;;;;5032035;28;20156;-80
2022/10/25 10:15:24;;;;;;;15.50;10.82;;;16.00;99.90;;;;;;5043639;28;20470;-80
2022/10/25 10:18:22;;;;;;;15.73;10.02;;;16.00;99.90;;;;;;5037820;28;20108;-80
2022/10/25 10:21:05;;;;;;;13.93;9.98;;;16.10;99.90;;;;;;5037734;28;20017;-80
2022/10/25 10:23:52;;;;;;;14.90;9.23;;;16.10;99.90;;;;;;5043068;28;20086;-80
2022/10/25 10:26:34;;;;;;;15.60;9.98;;;16.10;99.90;;;;;;5022218;28;20025;-80
2022/10/25 10:29:02;;;;;;;13.70;9.88;;;16.10;99.90;;;;;;5037554;28;20045;-80
2022/10/25 10:31:42;;;;;;;17.08;9.98;;;16.10;99.90;;;;;;5033518;28;20107;-80
2022/10/25 10:34:42;;;;;;;15.75;8.90;;;16.10;99.90;;;;;;5041966;28;20013;-80
2022/10/25 10:37:21;;;;;;;15.45;9.55;;;16.20;99.90;;;;;;5009236;28;20048;-80
2022/10/25 10:39:48;;;;;;;16.85;10.10;;;16.20;99.90;;;;;;5037616;28;20119;-80
2022/10/25 10:42:16;;;;;;;13.75;8.63;;;16.20;99.90;;;;;;5034402;28;20509;-80
2022/10/25 10:45:08;;;;;;;15.65;8.80;;;16.20;99.90;;;;;;5037183;28;20032;-80
2022/10/25 10:47:48;;;;;;;12.07;8.75;;;16.30;99.90;;;;;;5037137;28;20123;-80
2022/10/25 10:50:30;;;;;;;17.48;9.10;;;16.40;99.90;;;;;;5037290;28;20026;-80
2022/10/25 10:53:05;;;;;;;14.18;8.68;;;16.40;99.90;;;;;;5047915;28;20021;-80
2022/10/25 10:55:38;;;;;;;16.63;7.95;;;16.50;99.90;;;;;;5048892;28;20025;-83
2022/10/25 10:58:15;;;;;;;15.05;9.05;;;16.50;99.90;;;;;;5042296;28;20037;-82
2022/10/25 11:00:56;;;;;;;16.05;8.55;;;16.50;99.90;;;;;;5037095;28;20017;-84
2022/10/25 11:03:33;;;;;;;15.43;8.40;;;16.60;99.90;;;;;;5034046;28;20436;-84
2022/10/25 11:06:00;;;;;;;16.20;8.35;;;16.60;99.90;;;;;;5032094;28;20492;-83
2022/10/25 11:08:25;;;;;;;14.07;8.10;;;16.60;99.90;;;;;;5017364;28;20376;-84
2022/10/25 11:10:51;;;;;;;13.00;7.38;;;16.60;99.90;;;;;;5048777;28;20035;-84
2022/10/25 11:13:19;;;;;;;15.38;7.35;;;16.60;99.90;;;;;;5023608;28;20021;-84
2022/10/25 11:15:47;;;;;;;15.02;7.43;;;16.70;99.90;;;;;;5049413;28;20231;-84
2022/10/25 11:18:14;;;;;;;13.90;6.60;;;16.70;99.90;;;;;;5036613;28;20024;-83
2022/10/25 11:21:03;;;;;;;11.45;6.68;;;16.70;99.90;;;;;;5036593;28;20025;-82
2022/10/25 11:23:45;;;;;;;14.52;7.20;;;16.80;99.90;;;;;;5036430;28;20078;-82
2022/10/25 11:26:27;;;;;;;12.63;6.53;;;16.80;99.90;;;;;;5036488;28;20028;-83
2022/10/25 11:29:20;;;;;;;11.63;7.15;;;16.90;99.90;;;;;;5036401;28;20037;-82
2022/10/25 11:32:18;;;;;;;13.68;6.15;;;16.90;99.90;;;;;;5052732;28;20041;-82
2022/10/25 11:35:05;;;;;;;16.30;6.20;;;16.90;99.90;;;;;;5036112;28;20038;-82
2022/10/25 11:37:51;;;;;;;13.18;5.72;;;16.90;99.90;;;;;;5036833;28;20017;-80
2022/10/25 11:40:28;;;;;;;14.43;6.90;;;16.90;99.90;;;;;;5032050;28;20017;-80
2022/10/25 11:43:18;;;;;;;16.95;6.20;;;16.90;99.90;;;;;;5036266;28;20029;-80
2022/10/25 11:45:48;;;;;;;13.13;7.18;;;17.00;99.90;;;;;;5049695;28;20033;-81
2022/10/25 11:48:30;;;;;;;12.02;6.40;;;17.00;99.90;;;;;;5031642;28;20428;-85
2022/10/25 11:51:23;;;;;;;11.15;6.47;;;17.00;99.90;;;;;;5044384;28;20448;-85
2022/10/25 11:54:05;;;;;;;11.95;5.95;;;17.10;99.90;;;;;;5046985;28;20056;-85
2022/10/25 11:56:46;;;;;;;9.23;5.50;;;17.10;99.90;;;;;;5050966;28;20040;-85
2022/10/25 11:59:24;;;;;;;12.00;5.68;;;17.10;99.90;;;;;;5036021;28;20017;-84
2022/10/25 12:02:30;;;;;;;11.57;6.22;;;17.10;99.90;;;;;;5053715;28;20021;-85
2022/10/25 12:05:13;;;;;;;11.25;5.55;;;17.10;99.90;;;;;;5048911;28;20040;-85
2022/10/25 12:07:41;;;;;;;9.52;5.18;;;17.20;99.90;;;;;;5024419;28;20057;-84
2022/10/25 12:10:21;;;;;;;8.23;4.93;;;17.20;99.90;;;;;;5033642;28;20473;-84
2022/10/25 12:12:48;;;;;;;11.30;5.10;;;17.20;99.90;;;;;;5050560;28;20591;-84
2022/10/25 12:15:26;;;;;;;10.93;5.22;;;17.30;99.90;;;;;;5035818;28;20052;-85
2022/10/25 12:17:52;;;;;;;8.82;4.13;;;17.30;99.90;;;;;;5034921;28;20021;-83
2022/10/25 12:20:24;;;;;;;8.98;4.13;;;17.30;99.90;;;;;;5016970;28;20026;-83
2022/10/25 12:22:54;;;;;;;9.05;4.50;;;17.30;99.90;;;;;;5049611;28;20029;-82
2022/10/25 12:25:28;;;;;;;8.27;4.20;;;17.40;99.90;;;;;;5021981;28;20113;-83
2022/10/25 12:28:15;;;;;;;10.00;4.45;;;17.40;99.90;;;;;;5032419;28;20021;-82
2022/10/25 12:30:43;;;;;;;8.40;3.97;;;17.50;99.90;;;;;;5027945;28;20064;-83
2022/10/25 12:33:25;;;;;;;7.97;3.88;;;17.50;99.90;;;;;;5035491;28;20025;-83
2022/10/25 12:35:57;;;;;;;9.32;4.53;;;17.60;99.90;;;;;;5019295;28;20033;-83
2022/10/25 12:38:35;;;;;;;17.67;4.75;;;17.60;99.90;;;;;;5039034;28;20020;-82
2022/10/25 12:41:08;;;;;;;8.15;3.80;;;17.70;99.90;;;;;;5053965;28;20017;-83
2022/10/25 12:43:43;;;;;;;10.32;4.10;;;17.70;99.90;;;;;;5035791;28;20058;-82
2022/10/25 12:46:15;;;;;;;8.45;3.95;;;17.80;99.90;;;;;;5045288;28;20013;-82
2022/10/25 12:49:18;;;;;;;8.48;3.67;;;17.80;99.90;;;;;;5040799;28;20490;-81
2022/10/25 12:51:43;;;;;;;10.00;3.95;;;17.80;99.90;;;;;;5027901;28;20076;-81
2022/10/25 12:54:52;;;;;;;7.63;3.40;;;17.80;99.90;;;;;;5039582;28;20429;-82
2022/10/25 12:57:51;;;;;;;7.72;3.20;;;17.90;99.90;;;;;;5039281;28;20054;-82
2022/10/25 13:00:20;;;;;;;8.25;3.75;;;18.00;99.90;;;;;;5027673;28;20023;-82
2022/10/25 13:02:51;;;;;;;7.90;2.85;;;18.00;99.90;;;;;;5033700;28;20048;-83
2022/10/25 13:05:48;;;;;;;10.75;3.13;;;18.10;99.90;;;;;;5047693;28;20528;-84
2022/10/25 13:08:18;;;;;;;9.57;3.22;;;18.20;99.90;;;;;;5026624;28;20401;-82
2022/10/25 13:10:55;;;;;;;9.98;2.95;;;18.20;99.90;;;;;;5039664;28;20029;-82